Time;durP1;ratioP1;P1;durP2;ratioP2;P2;SDS_P1;SDS_P2;PMS_P1;PMS_P2;Temp;Humidity;BMP_temperature;BMP_pressure;BME280_temperature;BME280_humidity;BME280_pressure;Samples;Min_cycle;Max_cycle;Signal;HPM_P1;HPM_P2
2023/05/26 00:00:09;;;;;;;8.03;7.23;;;;;;;14.42;98.97;100995.41;5069724;28;20269;-77
2023/05/26 00:02:36;;;;;;;9.57;7.47;;;;;;;14.37;99.39;100991.97;5069974;28;20725;-76
2023/05/26 00:05:03;;;;;;;8.63;7.77;;;;;;;14.40;99.15;100988.50;5070080;28;20194;-76
2023/05/26 00:07:28;;;;;;;10.07;8.00;;;;;;;14.33;99.72;100990.31;5069500;28;20188;-76
2023/05/26 00:09:54;;;;;;;8.47;7.57;;;;;;;14.33;100.00;100990.31;5054162;28;20246;-76
2023/05/26 00:12:20;;;;;;;9.97;8.87;;;;;;;14.36;100.00;101000.69;5051637;28;20195;-76
2023/05/26 00:14:46;;;;;;;9.90;7.40;;;;;;;14.35;100.00;101000.72;5067439;28;20192;-77
2023/05/26 00:17:12;;;;;;;8.97;8.07;;;;;;;14.33;100.00;101001.59;5071004;28;20281;-76
2023/05/26 00:19:37;;;;;;;10.07;7.83;;;;;;;14.38;99.99;101004.13;5068690;28;20346;-77
2023/05/26 00:22:03;;;;;;;8.87;7.97;;;;;;;14.37;100.00;100993.75;5052852;28;20660;-77
2023/05/26 00:24:29;;;;;;;8.10;7.30;;;;;;;14.36;99.92;100999.81;5070703;28;20937;-77
2023/05/26 00:26:56;;;;;;;8.00;7.20;;;;;;;14.36;99.93;100997.22;5070142;28;20308;-76
2023/05/26 00:29:21;;;;;;;9.00;7.73;;;;;;;14.33;100.00;101001.59;5070504;28;20204;-76
2023/05/26 00:31:46;;;;;;;11.63;8.70;;;;;;;14.35;100.00;101000.72;5069182;28;20193;-77
2023/05/26 00:34:12;;;;;;;9.90;8.67;;;;;;;14.34;100.00;100999.84;5067340;28;20193;-77
2023/05/26 00:36:37;;;;;;;9.57;7.93;;;;;;;14.30;100.00;100995.56;5067283;28;20193;-76
2023/05/26 00:39:02;;;;;;;10.47;8.23;;;;;;;14.28;100.00;100990.38;5067496;28;20617;-77
2023/05/26 00:41:28;;;;;;;9.30;8.10;;;;;;;14.29;100.00;101001.66;5069855;28;20180;-76
2023/05/26 00:43:53;;;;;;;10.40;8.20;;;;;;;14.34;100.00;100997.25;5068655;28;20341;-76
2023/05/26 00:46:19;;;;;;;9.87;8.37;;;;;;;14.28;100.00;100987.78;5070654;28;20195;-77
2023/05/26 00:48:44;;;;;;;9.43;7.67;;;;;;;14.26;100.00;100999.97;5068440;28;20216;-77
2023/05/26 00:51:11;;;;;;;8.57;7.33;;;;;;;14.23;99.39;101002.59;5068757;28;20608;-76
2023/05/26 00:53:41;;;;;;;8.33;7.53;;;;;;;14.20;99.92;101000.03;5067557;28;20199;-76
2023/05/26 00:56:09;;;;;;;8.57;7.47;;;;;;;14.12;100.00;100992.31;5068515;28;20193;-76
2023/05/26 00:58:34;;;;;;;8.83;7.60;;;;;;;14.06;100.00;100997.63;5066495;28;20215;-78
2023/05/26 01:01:00;;;;;;;8.47;7.40;;;;;;;14.07;100.00;100996.69;5067108;28;20195;-76
2023/05/26 01:03:27;;;;;;;8.83;7.93;;;;;;;14.08;100.00;100989.78;5072163;28;20244;-76
2023/05/26 01:05:53;;;;;;;8.23;7.53;;;;;;;14.10;100.00;100985.41;5069866;28;20196;-77
2023/05/26 01:08:18;;;;;;;8.30;7.37;;;;;;;14.07;100.00;100988.88;5068296;28;20251;-76
2023/05/26 01:10:44;;;;;;;8.20;7.43;;;;;;;14.05;99.84;100977.66;5069573;28;20748;-76
2023/05/26 01:13:14;;;;;;;9.17;7.63;;;;;;;14.12;99.12;100989.72;5066975;28;20196;-76
2023/05/26 01:15:53;;;;;;;7.87;7.07;;;;;;;14.04;100.00;100988.97;5067885;28;20227;-77
2023/05/26 01:18:29;;;;;;;8.20;7.30;;;;;;;14.09;99.46;100984.53;5050219;28;20942;-76
2023/05/26 01:21:05;;;;;;;8.50;7.60;;;;;;;14.08;99.29;100981.97;5048671;28;20278;-77
2023/05/26 01:23:37;;;;;;;8.63;7.57;;;;;;;14.08;99.59;100988.00;5069777;28;20214;-78
2023/05/26 01:26:42;;;;;;;9.23;7.60;;;;;;;14.06;99.55;100988.91;5063339;28;20972;-76
2023/05/26 01:29:13;;;;;;;9.37;7.67;;;;;;;14.03;99.91;100990.69;5066079;28;20219;-77
2023/05/26 01:31:39;;;;;;;7.83;7.03;;;;;;;14.05;99.78;100982.00;5066615;28;20189;-74
2023/05/26 01:34:05;;;;;;;9.53;7.30;;;;;;;14.04;99.55;100981.16;5067908;28;20187;-76
2023/05/26 01:36:31;;;;;;;9.03;7.53;;;;;;;14.08;98.90;100984.56;5065712;28;20200;-77
2023/05/26 01:38:57;;;;;;;9.53;7.57;;;;;;;14.05;98.84;100987.19;5067964;28;20580;-77
2023/05/26 01:41:33;;;;;;;8.17;7.37;;;;;;;14.02;99.65;100980.31;5068655;28;20194;-77
2023/05/26 01:44:03;;;;;;;7.67;6.97;;;;;;;14.06;99.68;100981.13;5069614;28;22101;-77
2023/05/26 01:46:41;;;;;;;11.07;7.77;;;;;;;14.02;100.00;100977.69;5069275;28;20194;-77
2023/05/26 01:49:09;;;;;;;9.17;7.57;;;;;;;14.01;99.65;100982.03;5068588;28;20313;-77
2023/05/26 01:51:38;;;;;;;8.33;7.27;;;;;;;13.97;100.00;100984.69;5068141;28;20273;-76
2023/05/26 01:54:08;;;;;;;9.80;7.80;;;;;;;14.04;99.66;100983.75;5065580;28;20191;-77
2023/05/26 01:56:35;;;;;;;9.53;8.17;;;;;;;13.91;100.00;100983.03;5068789;28;20200;-77
2023/05/26 01:59:01;;;;;;;8.53;7.33;;;;;;;13.99;99.56;100980.34;5067632;28;20222;-77
2023/05/26 02:01:27;;;;;;;8.90;7.70;;;;;;;13.89;99.95;100986.53;5067945;28;20191;-77
2023/05/26 02:03:53;;;;;;;8.07;7.27;;;;;;;13.89;100.00;100989.97;5070153;28;20215;-77
2023/05/26 02:06:18;;;;;;;9.97;7.57;;;;;;;13.90;100.00;100983.91;5068946;28;20625;-77
2023/05/26 02:08:43;;;;;;;7.83;7.13;;;;;;;13.91;99.89;100985.63;5069919;28;20212;-76
2023/05/26 02:11:09;;;;;;;8.67;7.67;;;;;;;13.88;100.00;100988.25;5074277;28;20249;-76
2023/05/26 02:13:34;;;;;;;9.60;8.33;;;;;;;13.95;99.70;100983.84;5070979;28;20554;-77
2023/05/26 02:16:00;;;;;;;9.67;7.70;;;;;;;14.00;99.71;100984.66;5051495;28;20205;-77
2023/05/26 02:18:25;;;;;;;9.57;8.40;;;;;;;13.91;100.00;100995.19;5070591;28;20247;-76
2023/05/26 02:20:50;;;;;;;8.67;7.77;;;;;;;13.86;100.00;100988.28;5053237;28;20231;-76
2023/05/26 02:23:16;;;;;;;9.37;7.40;;;;;;;13.81;100.00;100982.25;5071000;28;20215;-77
2023/05/26 02:25:41;;;;;;;10.17;7.97;;;;;;;13.82;100.00;100976.19;5069619;28;20183;-77
2023/05/26 02:28:07;;;;;;;11.03;8.17;;;;;;;13.81;100.00;100977.06;5054924;28;20312;-75
2023/05/26 02:30:32;;;;;;;8.47;7.67;;;;;;;13.82;100.00;100978.78;5066300;28;20192;-76
2023/05/26 02:32:57;;;;;;;8.27;7.47;;;;;;;13.81;100.00;100979.66;5071910;28;20190;-76
2023/05/26 02:35:23;;;;;;;8.70;7.80;;;;;;;13.81;100.00;100976.22;5070410;28;20211;-77
2023/05/26 02:37:48;;;;;;;11.20;7.70;;;;;;;13.90;100.00;100977.84;5071783;28;20488;-76
2023/05/26 02:40:14;;;;;;;9.40;8.27;;;;;;;13.79;100.00;100970.16;5070264;28;20184;-76
2023/05/26 02:42:39;;;;;;;8.53;7.53;;;;;;;13.80;100.00;100971.88;5070326;28;20199;-75
2023/05/26 02:45:05;;;;;;;8.70;7.80;;;;;;;13.78;100.00;100978.84;5071602;28;20179;-77
2023/05/26 02:47:30;;;;;;;8.63;7.43;;;;;;;13.77;100.00;100983.16;5055817;28;20186;-76
2023/05/26 02:49:56;;;;;;;8.80;7.80;;;;;;;13.80;100.00;100966.69;5073520;28;20564;-79
2023/05/26 02:52:22;;;;;;;8.40;7.60;;;;;;;13.75;100.00;100969.34;5073017;28;20193;-76
2023/05/26 02:54:48;;;;;;;8.50;7.50;;;;;;;13.71;100.00;100968.50;5073217;28;20195;-76
2023/05/26 02:57:13;;;;;;;9.10;8.20;;;;;;;13.75;100.00;100973.66;5057425;28;20207;-76
2023/05/26 02:59:39;;;;;;;8.47;7.67;;;;;;;13.66;100.00;100972.03;5058097;28;20214;-75
2023/05/26 03:02:04;;;;;;;10.00;8.30;;;;;;;13.66;100.00;100974.63;5073029;28;20231;-77
2023/05/26 03:04:29;;;;;;;9.00;8.20;;;;;;;13.63;100.00;100965.13;5072820;28;20583;-77
2023/05/26 03:06:55;;;;;;;8.60;7.77;;;;;;;13.57;100.00;100962.59;5070514;28;20840;-77
2023/05/26 03:09:20;;;;;;;8.93;7.87;;;;;;;13.59;100.00;100970.38;5053933;28;20271;-77
2023/05/26 03:11:45;;;;;;;8.97;8.07;;;;;;;13.58;100.00;100972.09;5054900;28;20186;-77
2023/05/26 03:14:11;;;;;;;11.40;8.60;;;;;;;13.60;100.00;100966.91;5069076;28;20181;-77
2023/05/26 03:16:36;;;;;;;9.63;7.90;;;;;;;13.61;100.00;100972.06;5067600;28;20189;-78
2023/05/26 03:19:03;;;;;;;9.10;8.20;;;;;;;13.57;100.00;100959.97;5053510;28;20242;-77
2023/05/26 03:21:28;;;;;;;8.47;7.57;;;;;;;13.55;100.00;100966.94;5069228;28;20184;-77
2023/05/26 03:23:54;;;;;;;9.50;7.30;;;;;;;13.56;100.00;100966.94;5068370;28;20292;-76
2023/05/26 03:26:21;;;;;;;9.53;8.20;;;;;;;13.57;100.00;100966.06;5065698;28;20182;-76
2023/05/26 03:28:46;;;;;;;8.73;7.93;;;;;;;13.54;100.00;100973.00;5068809;28;21059;-78
2023/05/26 03:31:12;;;;;;;9.10;8.20;;;;;;;13.50;100.00;100966.13;5051483;28;20187;-77
2023/05/26 03:33:37;;;;;;;8.67;7.80;;;;;;;13.48;100.00;100975.69;5068354;28;20195;-76
2023/05/26 03:36:03;;;;;;;10.33;8.43;;;;;;;13.45;100.00;100968.78;5059300;28;20186;-75
2023/05/26 03:38:28;;;;;;;9.00;8.10;;;;;;;13.45;100.00;100970.50;5071454;28;20226;-76
2023/05/26 03:40:53;;;;;;;9.67;8.67;;;;;;;13.42;100.00;100968.81;5073645;28;20186;-76
2023/05/26 03:43:19;;;;;;;9.23;8.33;;;;;;;13.44;100.00;100972.25;5073779;28;20221;-76
2023/05/26 03:45:44;;;;;;;9.80;8.37;;;;;;;13.40;100.00;100979.22;5067823;28;20190;-76
2023/05/26 03:48:12;;;;;;;9.00;8.10;;;;;;;13.38;100.00;100982.69;5069442;28;20760;-77
2023/05/26 03:50:38;;;;;;;9.50;8.60;;;;;;;13.44;100.00;100979.19;5068600;28;20278;-76
2023/05/26 03:53:04;;;;;;;9.53;8.33;;;;;;;13.44;100.00;100982.66;5054471;28;20272;-76
2023/05/26 03:55:33;;;;;;;9.40;8.23;;;;;;;13.44;100.00;100979.19;5068880;28;21243;-76
2023/05/26 03:57:58;;;;;;;10.73;8.97;;;;;;;13.45;100.00;100986.13;5071908;28;20252;-76
2023/05/26 04:00:27;;;;;;;9.70;8.80;;;;;;;13.46;100.00;100987.84;5070868;28;20196;-75
2023/05/26 04:02:53;;;;;;;9.20;8.30;;;;;;;13.42;100.00;100981.81;5076757;28;20245;-76
2023/05/26 04:05:18;;;;;;;9.93;8.93;;;;;;;13.45;100.00;100981.78;5056341;28;20664;-76
2023/05/26 04:07:44;;;;;;;10.03;9.03;;;;;;;13.45;100.00;100984.38;5066078;28;20192;-76
2023/05/26 04:10:11;;;;;;;9.53;8.63;;;;;;;13.44;100.00;100982.66;5069996;28;20201;-76
2023/05/26 04:12:37;;;;;;;9.70;8.70;;;;;;;13.46;100.00;100982.63;5069674;28;20190;-78
2023/05/26 04:15:03;;;;;;;12.40;9.30;;;;;;;13.44;100.00;100982.66;5068807;28;20262;-75
2023/05/26 04:17:28;;;;;;;12.20;9.47;;;;;;;13.43;100.00;100985.25;5069650;28;20175;-79
2023/05/26 04:19:53;;;;;;;10.37;9.43;;;;;;;13.41;100.00;100988.72;5048723;28;20769;-76
2023/05/26 04:22:19;;;;;;;11.47;9.57;;;;;;;13.41;100.00;100985.28;5069558;28;20554;-77
2023/05/26 04:24:44;;;;;;;10.17;9.17;;;;;;;13.37;100.00;100987.03;5070713;28;20209;-75
2023/05/26 04:27:09;;;;;;;11.03;9.40;;;;;;;13.40;100.00;100981.81;5069131;28;20209;-77
2023/05/26 04:29:35;;;;;;;9.60;8.60;;;;;;;13.41;100.00;100986.13;5065941;28;20273;-77
2023/05/26 04:32:00;;;;;;;10.50;9.37;;;;;;;13.41;100.00;100995.69;5070884;28;20194;-77
2023/05/26 04:34:26;;;;;;;9.73;8.83;;;;;;;13.46;100.00;100985.25;5070842;28;20269;-77
2023/05/26 04:36:52;;;;;;;12.70;9.33;;;;;;;13.50;100.00;100984.34;5068894;28;20189;-76
2023/05/26 04:39:18;;;;;;;11.17;9.90;;;;;;;13.53;100.00;100989.50;5052454;28;20214;-78
2023/05/26 04:41:46;;;;;;;11.00;9.37;;;;;;;13.54;100.00;100991.22;5066775;28;20192;-77
2023/05/26 04:44:12;;;;;;;11.27;9.77;;;;;;;13.54;100.00;100993.81;5070449;28;20296;-77
2023/05/26 04:46:38;;;;;;;10.30;9.20;;;;;;;13.59;100.00;100989.44;5067326;28;20767;-77
2023/05/26 04:49:09;;;;;;;10.83;9.63;;;;;;;13.62;100.00;100993.72;5069533;28;20201;-78
2023/05/26 04:51:35;;;;;;;9.93;8.93;;;;;;;13.67;100.00;100990.22;5067899;28;20173;-77
2023/05/26 04:54:01;;;;;;;10.30;9.30;;;;;;;13.79;100.00;100989.22;5072520;28;20659;-78
2023/05/26 04:56:26;;;;;;;10.63;9.60;;;;;;;13.87;100.00;100995.22;5051040;28;20202;-78
2023/05/26 04:58:51;;;;;;;10.10;9.20;;;;;;;13.96;100.00;101004.66;5069847;28;20668;-77
2023/05/26 05:01:17;;;;;;;10.47;9.17;;;;;;;14.10;99.86;100995.81;5070594;28;20192;-77
2023/05/26 05:03:43;;;;;;;10.90;9.53;;;;;;;14.27;99.25;101001.69;5072094;28;20322;-77
2023/05/26 05:06:10;;;;;;;9.90;8.90;;;;;;;14.42;97.67;101003.22;5071350;28;20603;-77
2023/05/26 05:08:37;;;;;;;10.27;9.27;;;;;;;14.54;96.78;101002.19;5071357;28;20202;-78
2023/05/26 05:11:03;;;;;;;34.27;12.07;;;;;;;14.66;95.60;101002.88;5047619;28;20277;-78
2023/05/26 05:13:28;;;;;;;10.87;9.73;;;;;;;14.79;95.71;101007.06;5067309;28;20640;-78
2023/05/26 05:15:53;;;;;;;11.23;9.37;;;;;;;14.94;94.26;101008.59;5070749;28;20188;-77
2023/05/26 05:18:19;;;;;;;11.07;9.33;;;;;;;15.12;94.10;101006.59;5074524;28;20204;-77
2023/05/26 05:20:45;;;;;;;10.20;8.77;;;;;;;15.28;92.78;101005.41;5089142;28;20189;-78
2023/05/26 05:23:10;;;;;;;9.90;8.90;;;;;;;15.51;91.72;101007.63;5093856;28;20199;-77
2023/05/26 05:25:35;;;;;;;10.30;8.87;;;;;;;15.61;90.68;101005.69;5061431;28;20232;-76
2023/05/26 05:28:00;;;;;;;10.17;8.83;;;;;;;15.94;90.18;100999.91;5076992;28;20230;-76
2023/05/26 05:30:26;;;;;;;12.53;8.93;;;;;;;16.20;89.36;101009.81;5073189;28;20261;-77
2023/05/26 05:32:51;;;;;;;13.10;8.83;;;;;;;16.19;89.14;101004.63;5079525;28;20969;-77
2023/05/26 05:35:16;;;;;;;10.07;8.30;;;;;;;16.29;87.75;101017.47;5058474;28;20180;-77
2023/05/26 05:37:42;;;;;;;10.23;9.03;;;;;;;16.17;87.09;101009.03;5076280;28;21197;-77
2023/05/26 05:40:08;;;;;;;9.80;8.23;;;;;;;16.41;87.15;101005.03;5056656;28;20625;-76
2023/05/26 05:42:33;;;;;;;9.97;8.03;;;;;;;16.31;86.95;101009.59;5077453;28;20173;-76
2023/05/26 05:44:59;;;;;;;8.63;7.80;;;;;;;16.40;86.74;101011.16;5069318;28;20274;-79
2023/05/26 05:47:24;;;;;;;18.60;9.27;;;;;;;16.46;85.19;101018.88;5074597;28;20204;-77
2023/05/26 05:49:50;;;;;;;12.00;9.03;;;;;;;16.35;87.14;101013.88;5073318;28;20615;-76
2023/05/26 05:52:15;;;;;;;13.00;8.60;;;;;;;16.37;84.98;101029.50;5062763;28;20563;-76
2023/05/26 05:54:40;;;;;;;9.40;8.27;;;;;;;16.35;85.46;101018.22;5091896;28;20220;-75
2023/05/26 05:57:05;;;;;;;10.57;8.30;;;;;;;16.41;85.55;101032.00;5098728;28;20177;-77
2023/05/26 05:59:31;;;;;;;9.77;8.17;;;;;;;16.44;85.95;101021.50;5094413;28;20262;-76
2023/05/26 06:01:56;;;;;;;9.37;8.33;;;;;;;16.47;85.46;101020.59;5085183;28;20193;-74
2023/05/26 06:04:21;;;;;;;10.40;8.07;;;;;;;16.62;84.36;101032.44;5070074;28;20221;-75
2023/05/26 06:06:47;;;;;;;9.13;8.17;;;;;;;16.77;84.96;101028.63;5055455;28;20296;-75
2023/05/26 06:09:12;;;;;;;8.90;7.97;;;;;;;16.69;84.03;101026.19;5072847;28;20221;-75
2023/05/26 06:11:37;;;;;;;9.60;7.20;;;;;;;16.96;83.62;101021.25;5074422;28;20563;-78
2023/05/26 06:14:03;;;;;;;9.03;7.70;;;;;;;17.13;82.43;101025.22;5059547;28;20188;-78
2023/05/26 06:16:28;;;;;;;13.70;8.37;;;;;;;16.98;82.76;101022.06;5077864;28;20192;-78
2023/05/26 06:18:53;;;;;;;11.30;8.07;;;;;;;16.95;82.97;101024.75;5057018;28;20231;-74
2023/05/26 06:21:19;;;;;;;11.73;8.13;;;;;;;16.92;82.53;101035.25;5074288;28;20282;-76
2023/05/26 06:23:44;;;;;;;13.10;8.27;;;;;;;16.85;82.81;101033.69;5074983;28;20231;-75
2023/05/26 06:26:09;;;;;;;14.30;8.50;;;;;;;16.86;83.29;101035.41;5069255;28;20227;-79
2023/05/26 06:28:35;;;;;;;13.33;7.73;;;;;;;17.41;82.21;101027.13;5073571;28;20303;-76
2023/05/26 06:31:00;;;;;;;13.27;8.93;;;;;;;17.22;80.72;101027.59;5071204;28;20182;-76
2023/05/26 06:33:26;;;;;;;11.97;8.27;;;;;;;17.36;81.22;101027.25;5068936;28;20268;-79
2023/05/26 06:35:51;;;;;;;10.93;7.63;;;;;;;17.42;80.69;101028.84;5077488;28;20180;-79
2023/05/26 06:38:16;;;;;;;9.83;8.30;;;;;;;17.34;80.53;101024.66;5080117;28;20212;-76
2023/05/26 06:40:42;;;;;;;8.90;7.47;;;;;;;17.55;81.44;101024.13;5076041;28;20207;-78
2023/05/26 06:43:07;;;;;;;10.20;7.47;;;;;;;18.08;79.67;101019.22;5077592;28;20681;-79
2023/05/26 06:45:32;;;;;;;11.27;7.53;;;;;;;18.16;78.46;101031.22;5073021;28;20184;-78
2023/05/26 06:47:58;;;;;;;8.47;7.57;;;;;;;18.23;78.68;101017.91;5069757;28;20205;-76
2023/05/26 06:50:23;;;;;;;10.40;8.00;;;;;;;18.29;77.87;101032.63;5069101;28;21126;-77
2023/05/26 06:52:50;;;;;;;9.30;7.37;;;;;;;18.39;78.28;101027.94;5070373;28;20736;-76
2023/05/26 06:55:16;;;;;;;14.03;8.00;;;;;;;18.42;77.84;101026.13;5055611;28;20185;-77
2023/05/26 06:57:42;;;;;;;14.00;7.87;;;;;;;18.67;78.09;101021.88;5056708;28;20192;-76
2023/05/26 07:00:08;;;;;;;10.40;7.77;;;;;;;18.73;77.25;101022.56;5070768;28;20292;-77
2023/05/26 07:02:33;;;;;;;9.23;7.80;;;;;;;18.65;77.18;101021.91;5070528;28;20384;-77
2023/05/26 07:04:58;;;;;;;8.33;7.33;;;;;;;18.19;78.11;101024.16;5061629;28;20227;-77
2023/05/26 07:07:24;;;;;;;13.27;7.60;;;;;;;18.47;78.08;101023.34;5055491;28;20196;-77
2023/05/26 07:09:49;;;;;;;10.03;7.47;;;;;;;18.46;77.90;101019.00;5048993;28;20213;-76
2023/05/26 07:12:14;;;;;;;13.20;8.93;;;;;;;18.62;78.33;101018.53;5070126;28;20178;-77
2023/05/26 07:14:40;;;;;;;14.47;8.30;;;;;;;18.72;77.64;101017.34;5072720;28;20219;-78
2023/05/26 07:17:06;;;;;;;14.30;7.97;;;;;;;19.03;76.48;101021.63;5051911;28;20181;-77
2023/05/26 07:19:31;;;;;;;8.53;7.17;;;;;;;19.03;76.48;101022.50;5069892;28;20342;-77
2023/05/26 07:21:56;;;;;;;8.43;7.13;;;;;;;18.94;76.99;101019.28;5054241;28;20181;-76
2023/05/26 07:24:22;;;;;;;10.97;7.47;;;;;;;19.08;76.05;101029.34;5054278;28;20205;-78
2023/05/26 07:26:47;;;;;;;12.57;7.03;;;;;;;19.40;76.28;101025.66;5055450;28;20196;-76
2023/05/26 07:29:12;;;;;;;12.70;7.80;;;;;;;19.47;76.66;101029.78;5067817;28;20236;-77
2023/05/26 07:31:38;;;;;;;14.40;7.70;;;;;;;19.49;77.05;101030.59;5069030;28;20189;-79
2023/05/26 07:34:03;;;;;;;11.00;6.87;;;;;;;19.69;75.62;101030.81;5055701;28;20189;-76
2023/05/26 07:36:29;;;;;;;8.57;7.33;;;;;;;19.61;74.85;101033.69;5053159;28;20303;-77
2023/05/26 07:38:54;;;;;;;11.47;8.03;;;;;;;19.49;76.39;101027.97;5050747;28;20278;-76
2023/05/26 07:41:21;;;;;;;9.77;7.73;;;;;;;19.59;75.81;101038.13;5069867;28;20197;-76
2023/05/26 07:43:46;;;;;;;9.80;7.27;;;;;;;19.81;74.79;101025.13;5059493;28;20274;-75
2023/05/26 07:46:12;;;;;;;9.10;6.70;;;;;;;20.03;75.20;101029.63;5080908;28;20947;-77
2023/05/26 07:48:37;;;;;;;13.17;7.97;;;;;;;19.70;74.25;101032.50;5073349;28;21093;-77
2023/05/26 07:51:03;;;;;;;8.67;7.30;;;;;;;19.48;75.60;101028.88;5072789;28;20250;-77
2023/05/26 07:53:28;;;;;;;11.53;8.03;;;;;;;19.38;75.92;101024.84;5072766;28;20178;-77
2023/05/26 07:55:53;;;;;;;10.83;7.63;;;;;;;19.53;76.53;101030.50;5064914;28;20246;-78
2023/05/26 07:58:19;;;;;;;10.20;7.70;;;;;;;19.68;75.46;101024.72;5047327;28;20212;-78
2023/05/26 08:00:44;;;;;;;11.00;7.37;;;;;;;19.87;75.21;101030.19;5067668;28;20242;-77
2023/05/26 08:03:09;;;;;;;8.73;7.57;;;;;;;20.01;74.67;101021.81;5068402;28;20231;-76
2023/05/26 08:05:35;;;;;;;7.53;6.77;;;;;;;20.16;74.92;101022.16;5066154;28;20273;-76
2023/05/26 08:08:01;;;;;;;8.67;7.70;;;;;;;20.07;74.78;101023.34;5066075;28;20228;-76
2023/05/26 08:10:26;;;;;;;9.00;7.10;;;;;;;20.09;74.19;101024.16;5069879;28;20300;-77
2023/05/26 08:12:52;;;;;;;9.47;7.13;;;;;;;20.29;73.68;101019.91;5050541;28;20200;-77
2023/05/26 08:15:20;;;;;;;9.77;7.07;;;;;;;20.21;74.15;101022.81;5049846;28;20216;-77
2023/05/26 08:17:46;;;;;;;10.80;7.73;;;;;;;20.05;74.68;101026.00;5067510;28;20246;-77
2023/05/26 08:20:12;;;;;;;8.90;7.40;;;;;;;19.69;74.36;101036.94;5051189;28;20872;-79
2023/05/26 08:22:38;;;;;;;10.23;7.57;;;;;;;19.57;75.56;101037.34;5051370;28;20189;-78
2023/05/26 08:25:04;;;;;;;10.47;8.30;;;;;;;19.40;76.00;101027.41;5053170;28;20237;-77
2023/05/26 08:27:29;;;;;;;11.90;8.50;;;;;;;19.42;75.58;101034.34;5050809;28;20181;-77
2023/05/26 08:29:55;;;;;;;10.47;7.90;;;;;;;19.37;76.88;101040.63;5068029;28;20232;-78
2023/05/26 08:32:20;;;;;;;9.67;8.17;;;;;;;19.54;76.82;101027.81;5065228;28;20193;-76
2023/05/26 08:34:45;;;;;;;18.37;9.50;;;;;;;19.67;76.67;101027.38;5068159;28;20216;-76
2023/05/26 08:37:13;;;;;;;8.50;7.33;;;;;;;19.79;76.28;101024.34;5048438;28;20221;-77
2023/05/26 08:39:39;;;;;;;12.03;7.60;;;;;;;19.94;75.70;101013.31;5068094;28;20204;-76
2023/05/26 08:42:18;;;;;;;12.83;7.93;;;;;;;20.06;75.11;101030.34;5069881;28;20189;-77
2023/05/26 08:44:44;;;;;;;10.10;8.20;;;;;;;19.97;75.32;101020.19;5052410;28;20246;-78
2023/05/26 08:47:11;;;;;;;12.37;8.43;;;;;;;19.97;75.37;101022.81;5053288;28;20189;-77
2023/05/26 08:49:41;;;;;;;10.20;7.80;;;;;;;19.94;75.67;101021.19;5069354;28;20248;-76
2023/05/26 08:52:09;;;;;;;12.17;8.63;;;;;;;19.88;74.57;101024.03;5069328;28;20547;-76
2023/05/26 08:54:35;;;;;;;8.73;7.80;;;;;;;19.92;75.70;101023.00;5069555;28;20213;-77
2023/05/26 08:57:03;;;;;;;9.73;7.33;;;;;;;19.96;75.47;101031.63;5047687;28;20301;-77
2023/05/26 08:59:29;;;;;;;11.10;8.20;;;;;;;20.01;75.74;101034.94;5066427;28;20586;-77
2023/05/26 09:01:58;;;;;;;11.00;8.10;;;;;;;19.97;76.18;101035.97;5066168;28;20195;-80
2023/05/26 09:04:25;;;;;;;11.97;9.47;;;;;;;19.85;75.60;101036.38;5069422;28;20212;-77
2023/05/26 09:06:51;;;;;;;12.80;8.70;;;;;;;19.72;75.87;101049.06;5073148;28;20186;-77
2023/05/26 09:09:17;;;;;;;14.30;9.20;;;;;;;19.61;76.20;101050.31;5069524;28;20290;-77
2023/05/26 09:11:43;;;;;;;12.63;9.47;;;;;;;19.45;76.01;101038.63;5069376;28;20182;-77
2023/05/26 09:14:14;;;;;;;10.80;8.50;;;;;;;19.43;76.60;101033.44;5069825;28;20221;-77
2023/05/26 09:16:39;;;;;;;13.30;9.57;;;;;;;19.45;77.07;101031.59;5068457;28;20192;-77
2023/05/26 09:19:06;;;;;;;11.03;9.13;;;;;;;19.51;76.52;101038.44;5051225;28;20208;-77
2023/05/26 09:21:31;;;;;;;12.90;8.67;;;;;;;19.57;76.90;101037.34;5067930;28;20633;-76
2023/05/26 09:24:00;;;;;;;12.53;8.80;;;;;;;19.63;77.78;101027.50;5053574;28;20216;-78
2023/05/26 09:26:27;;;;;;;9.73;8.50;;;;;;;19.75;77.07;101035.84;5067468;28;20185;-77
2023/05/26 09:28:52;;;;;;;10.07;8.77;;;;;;;19.74;75.76;101039.38;5053191;28;20674;-79
2023/05/26 09:31:18;;;;;;;12.37;9.27;;;;;;;19.75;77.13;101023.56;5050248;28;20212;-77
2023/05/26 09:33:47;;;;;;;11.80;9.37;;;;;;;19.84;76.42;101040.75;5049581;28;20808;-76
2023/05/26 09:36:15;;;;;;;12.27;8.70;;;;;;;19.82;76.21;101029.44;5051478;28;20188;-78
2023/05/26 09:38:42;;;;;;;9.43;8.47;;;;;;;19.84;76.53;101029.41;5052716;28;20296;-76
2023/05/26 09:41:07;;;;;;;18.43;9.37;;;;;;;19.99;76.28;101028.88;5067270;28;20784;-77
2023/05/26 09:43:33;;;;;;;10.40;8.43;;;;;;;19.98;74.87;101040.31;5048784;28;20263;-76
2023/05/26 09:45:59;;;;;;;12.43;8.67;;;;;;;19.90;75.52;101027.44;5065960;28;20202;-76
2023/05/26 09:48:25;;;;;;;14.47;9.10;;;;;;;19.97;74.58;101038.59;5068534;28;20505;-77
2023/05/26 09:50:51;;;;;;;12.77;8.70;;;;;;;19.87;75.09;101055.59;5069987;28;21405;-79
2023/05/26 09:53:17;;;;;;;13.77;9.17;;;;;;;19.85;74.98;101033.75;5050528;28;20661;-76
2023/05/26 09:55:43;;;;;;;12.57;8.33;;;;;;;19.93;76.06;101043.09;5049661;28;20234;-79
2023/05/26 09:58:10;;;;;;;13.20;8.57;;;;;;;20.02;75.59;101039.28;5055068;28;20181;-77
2023/05/26 10:00:43;;;;;;;13.23;8.57;;;;;;;20.07;75.48;101032.06;5067050;28;20188;-79
2023/05/26 10:03:10;;;;;;;8.93;7.77;;;;;;;20.20;75.04;101027.22;5067572;28;20185;-77
2023/05/26 10:05:47;;;;;;;12.43;8.17;;;;;;;20.21;73.79;101033.34;5053512;28;20269;-79
2023/05/26 10:08:16;;;;;;;10.10;7.83;;;;;;;20.24;73.95;101036.72;5051341;28;20252;-78
2023/05/26 10:10:43;;;;;;;20.50;8.83;;;;;;;20.16;72.78;101040.56;5069102;28;20191;-77
2023/05/26 10:13:10;;;;;;;11.67;8.20;;;;;;;20.08;73.14;101033.78;5052702;28;20190;-77
2023/05/26 10:15:35;;;;;;;9.77;8.30;;;;;;;19.98;73.76;101045.56;5068428;28;20757;-79
2023/05/26 10:18:02;;;;;;;22.53;8.83;;;;;;;20.00;73.68;101035.84;5072145;28;20185;-77
2023/05/26 10:20:29;;;;;;;9.77;7.50;;;;;;;20.06;72.66;101035.63;5071120;28;21501;-76
2023/05/26 10:23:00;;;;;;;10.33;7.40;;;;;;;20.16;72.90;101032.66;5068465;28;20189;-78
2023/05/26 10:25:44;;;;;;;10.97;7.90;;;;;;;20.24;72.85;101035.84;5049484;28;20197;-76
2023/05/26 10:28:25;;;;;;;8.73;7.67;;;;;;;20.29;73.66;101028.66;5063473;28;20612;-78
2023/05/26 10:30:59;;;;;;;13.20;8.47;;;;;;;20.39;72.64;101030.00;5067623;28;20279;-77
2023/05/26 10:33:43;;;;;;;8.90;7.10;;;;;;;20.49;72.30;101017.38;5070253;28;20546;-77
2023/05/26 10:36:18;;;;;;;10.10;7.40;;;;;;;20.55;72.02;101025.03;5068152;28;20193;-76
2023/05/26 10:38:48;;;;;;;11.40;8.77;;;;;;;20.45;72.69;101031.53;5053385;28;20695;-76
2023/05/26 10:41:34;;;;;;;13.03;7.93;;;;;;;20.44;73.19;101031.63;5046381;28;20190;-77
2023/05/26 10:44:00;;;;;;;9.40;7.40;;;;;;;20.48;72.21;101023.53;5054334;28;20231;-78
2023/05/26 10:46:42;;;;;;;10.87;8.20;;;;;;;20.49;71.99;101029.69;5053447;28;20656;-78
2023/05/26 10:49:23;;;;;;;9.53;7.73;;;;;;;20.53;72.48;101026.88;5052490;28;20328;-79
2023/05/26 10:51:55;;;;;;;10.13;7.77;;;;;;;20.65;73.12;101017.63;5069204;28;20685;-76
2023/05/26 10:54:24;;;;;;;8.00;7.20;;;;;;;20.76;72.21;101024.28;5067694;28;20195;-76
2023/05/26 10:56:52;;;;;;;9.90;6.90;;;;;;;20.93;73.13;101020.94;5072594;28;20222;-77
2023/05/26 10:59:32;;;;;;;12.40;8.20;;;;;;;20.93;72.29;101021.81;5056398;28;20201;-78
2023/05/26 11:02:06;;;;;;;11.73;8.10;;;;;;;20.97;71.24;101019.91;5053368;28;20185;-77
2023/05/26 11:04:48;;;;;;;11.13;7.90;;;;;;;20.93;70.29;101016.56;5074660;28;20696;-77
2023/05/26 11:07:16;;;;;;;9.03;6.63;;;;;;;21.00;70.46;101011.91;5056096;28;20181;-76
2023/05/26 11:10:06;;;;;;;7.83;7.00;;;;;;;20.79;68.98;101021.53;5068640;28;20217;-76
2023/05/26 11:12:54;;;;;;;8.77;6.97;;;;;;;20.92;69.52;101013.97;5077513;28;20192;-77
2023/05/26 11:15:33;;;;;;;10.23;7.83;;;;;;;20.93;70.16;101002.53;5058562;28;20591;-77
2023/05/26 11:18:09;;;;;;;10.23;7.10;;;;;;;21.09;69.71;100998.34;5056168;28;20181;-77